Terminal Aerodrome Forecast
Issued by NWS

Home | Current Version | Previous Version | Text Only | Print | Product List | Glossary On
Versions: 1 2 3 4 5 6 7 8 9 10 11 12 13 14 15 16 17
000
FTAK31 PAJN 220531
TAFASI
TAF
PASI 220531Z 2206/2306 16007KT P6SM -SHRA FEW025 BKN050 OVC060
     FM220900 15007KT P6SM -SHRA BKN030 OVC050
     FM221500 15008G16KT 6SM -SHRA SCT025 OVC035
     FM222100 15008KT P6SM VCSH SCT025 BKN050 OVC070
     FM230000 19009KT P6SM BKN050 BKN070=

USA.gov is the U.S. government's official web portal to all federal, state and local government web resources and services.